Time;durP1;ratioP1;P1;durP2;ratioP2;P2;SDS_P1;SDS_P2;PMS_P1;PMS_P2;Temp;Humidity;BMP_temperature;BMP_pressure;BME280_temperature;BME280_humidity;BME280_pressure;Samples;Min_cycle;Max_cycle;Signal;HPM_P1;HPM_P2
2021/07/17 00:00:09;;;;;;;7.70;4.72;;;615.20;1996.80;;;;;;5095615;28;20024;-48
2021/07/17 00:02:35;;;;;;;7.18;5.35;;;615.10;1996.80;;;;;;5092776;28;20016;-49
2021/07/17 00:05:04;;;;;;;8.10;4.53;;;615.10;2022.40;;;;;;5094145;28;20050;-48
2021/07/17 00:07:29;;;;;;;9.35;4.47;;;615.00;1996.80;;;;;;5095344;28;20027;-55
2021/07/17 00:09:55;;;;;;;9.02;4.68;;;615.10;2022.40;;;;;;5092785;28;20400;-48
2021/07/17 00:12:21;;;;;;;8.77;4.13;;;615.10;1996.80;;;;;;5095296;28;20042;-56
2021/07/17 00:14:47;;;;;;;18.15;7.55;;;615.10;1996.80;;;;;;5095802;28;20377;-56
2021/07/17 00:17:13;;;;;;;23.92;12.25;;;615.10;1996.80;;;;;;5095822;28;20012;-49
2021/07/17 00:19:40;;;;;;;28.95;12.50;;;614.80;2022.40;;;;;;5095724;28;20246;-49
2021/07/17 00:22:06;;;;;;;27.92;11.80;;;614.70;2048.00;;;;;;5095284;28;20020;-48
2021/07/17 00:24:32;;;;;;;22.52;9.88;;;614.80;2048.00;;;;;;5092751;28;20024;-49
2021/07/17 00:26:58;;;;;;;19.92;8.45;;;614.70;2022.40;;;;;;5095664;28;20062;-55
2021/07/17 00:29:24;;;;;;;12.75;6.28;;;614.70;2048.00;;;;;;5095420;28;20032;-56
2021/07/17 00:31:50;;;;;;;13.63;5.88;;;614.60;2048.00;;;;;;5094182;28;20041;-49
2021/07/17 00:34:16;;;;;;;8.57;4.57;;;614.60;2048.00;;;;;;5095669;28;20022;-49
2021/07/17 00:36:42;;;;;;;6.13;3.90;;;614.60;2073.60;;;;;;5095288;28;20043;-48
2021/07/17 00:39:08;;;;;;;11.55;4.55;;;614.60;2048.00;;;;;;5095254;28;20036;-49
2021/07/17 00:41:34;;;;;;;7.82;3.90;;;589.70;2099.20;;;;;;5095275;28;20103;-48
2021/07/17 00:44:00;;;;;;;6.78;3.85;;;589.70;2099.20;;;;;;5095156;28;20099;-49
2021/07/17 00:46:28;;;;;;;8.52;3.85;;;614.40;2048.00;;;;;;5095743;28;20024;-56
2021/07/17 00:48:54;;;;;;;6.38;4.18;;;614.40;2073.60;;;;;;5095293;28;20046;-49
2021/07/17 00:51:22;;;;;;;9.05;3.85;;;614.40;2099.20;;;;;;5095127;28;20020;-49
2021/07/17 00:53:48;;;;;;;7.80;4.00;;;589.70;2099.20;;;;;;5095590;28;20024;-53
2021/07/17 00:56:16;;;;;;;6.30;3.75;;;614.40;2073.60;;;;;;5094975;28;20043;-49
2021/07/17 00:58:44;;;;;;;5.85;4.53;;;614.40;2073.60;;;;;;5094050;28;20024;-48
2021/07/17 01:01:12;;;;;;;8.15;4.07;;;614.40;2099.20;;;;;;5094869;28;20016;-48
2021/07/17 01:03:39;;;;;;;5.85;4.10;;;589.70;2099.20;;;;;;5094850;28;20034;-56
2021/07/17 01:06:05;;;;;;;6.53;4.40;;;589.70;2099.20;;;;;;5094775;28;20107;-56
2021/07/17 01:08:31;;;;;;;8.07;4.43;;;589.60;2099.20;;;;;;5094609;28;20119;-48
2021/07/17 01:10:57;;;;;;;7.22;4.55;;;589.70;2099.20;;;;;;5094727;28;20024;-48
2021/07/17 01:13:23;;;;;;;9.60;4.68;;;614.40;2099.20;;;;;;5094918;28;20103;-48
2021/07/17 01:15:48;;;;;;;6.57;4.13;;;589.60;2124.80;;;;;;5094811;28;20046;-48
2021/07/17 01:18:14;;;;;;;17.30;6.72;;;589.70;2099.20;;;;;;5094591;28;20031;-49
2021/07/17 01:20:41;;;;;;;36.20;15.23;;;589.60;2099.20;;;;;;5094740;28;20027;-48
2021/07/17 01:23:08;;;;;;;57.63;23.05;;;589.70;2099.20;;;;;;5094484;28;20028;-48
2021/07/17 01:25:34;;;;;;;98.10;41.47;;;614.40;2099.20;;;;;;5094418;28;20075;-49
2021/07/17 01:28:01;;;;;;;130.55;49.40;;;614.40;2099.20;;;;;;5094143;28;20040;-49
2021/07/17 01:30:31;;;;;;;125.25;53.22;;;614.40;2073.60;;;;;;5092968;28;20044;-48
2021/07/17 01:32:58;;;;;;;151.73;58.13;;;614.40;2099.20;;;;;;5094284;28;20033;-49
2021/07/17 01:35:24;;;;;;;178.60;68.00;;;614.40;2073.60;;;;;;5094275;28;20028;-48
2021/07/17 01:37:50;;;;;;;223.35;86.35;;;614.40;2073.60;;;;;;5094222;28;20027;-49
2021/07/17 01:40:19;;;;;;;271.73;105.80;;;614.40;2073.60;;;;;;5094444;28;20020;-57
2021/07/17 01:42:46;;;;;;;288.95;118.90;;;614.40;2073.60;;;;;;5094408;28;20051;-49
2021/07/17 01:45:22;;;;;;;299.15;121.50;;;614.40;2048.00;;;;;;5094084;28;20081;-49
2021/07/17 01:47:48;;;;;;;262.77;103.95;;;614.40;2073.60;;;;;;5094016;28;20023;-49
2021/07/17 01:50:14;;;;;;;261.63;101.68;;;614.40;2073.60;;;;;;5093956;28;20028;-49
2021/07/17 01:52:40;;;;;;;255.18;97.78;;;614.40;2073.60;;;;;;5093960;28;20077;-49
2021/07/17 01:55:07;;;;;;;162.07;66.85;;;614.40;2099.20;;;;;;5094008;28;20024;-49
2021/07/17 01:57:33;;;;;;;93.00;34.13;;;589.70;2099.20;;;;;;5093907;28;20028;-49
2021/07/17 01:59:59;;;;;;;47.50;20.85;;;589.70;2099.20;;;;;;5093895;28;20020;-49
2021/07/17 02:02:25;;;;;;;36.45;14.27;;;614.40;2073.60;;;;;;5094097;28;20472;-49
2021/07/17 02:04:51;;;;;;;11.48;7.18;;;614.40;2073.60;;;;;;5093837;28;20024;-49
2021/07/17 02:07:17;;;;;;;15.25;6.72;;;614.40;2099.20;;;;;;5093808;28;20026;-49
2021/07/17 02:09:43;;;;;;;16.65;8.57;;;589.50;2124.80;;;;;;5093427;28;20043;-49
2021/07/17 02:12:09;;;;;;;19.00;8.27;;;589.60;2099.20;;;;;;5093879;28;20028;-49
2021/07/17 02:14:36;;;;;;;22.15;9.45;;;589.70;2099.20;;;;;;5093992;28;20510;-49
2021/07/17 02:17:04;;;;;;;30.35;14.93;;;614.40;2073.60;;;;;;5093625;28;20023;-49
2021/07/17 02:19:29;;;;;;;38.95;17.35;;;614.40;2073.60;;;;;;5093681;28;20024;-49
2021/07/17 02:21:55;;;;;;;77.38;32.78;;;614.40;2073.60;;;;;;5093781;28;20102;-57
2021/07/17 02:24:21;;;;;;;108.53;44.97;;;589.70;2099.20;;;;;;5093814;28;20016;-50
2021/07/17 02:26:47;;;;;;;110.10;43.70;;;589.70;2099.20;;;;;;5093842;28;20076;-48
2021/07/17 02:29:14;;;;;;;108.80;43.72;;;614.40;2073.60;;;;;;5093468;28;20032;-49
2021/07/17 02:31:41;;;;;;;132.18;54.03;;;614.40;2073.60;;;;;;5093500;28;20099;-48
2021/07/17 02:34:11;;;;;;;128.27;49.40;;;614.40;2073.60;;;;;;5093489;28;20048;-49
2021/07/17 02:36:38;;;;;;;64.25;27.95;;;614.40;2073.60;;;;;;5093531;28;20030;-49
2021/07/17 02:39:05;;;;;;;33.70;15.50;;;614.40;2099.20;;;;;;5093426;28;20105;-49
2021/07/17 02:41:31;;;;;;;14.70;7.88;;;614.50;2099.20;;;;;;5093434;28;20469;-49
2021/07/17 02:43:57;;;;;;;12.82;6.35;;;614.40;2099.20;;;;;;5093433;28;20032;-49
2021/07/17 02:46:23;;;;;;;11.50;5.30;;;614.50;2073.60;;;;;;5093387;28;20456;-49
2021/07/17 02:48:49;;;;;;;9.68;4.68;;;614.40;2073.60;;;;;;5093243;28;20433;-49
2021/07/17 02:51:15;;;;;;;10.45;5.05;;;614.50;2048.00;;;;;;5093292;28;20142;-49
2021/07/17 02:53:41;;;;;;;8.45;4.82;;;614.40;2099.20;;;;;;5093325;28;20051;-49
2021/07/17 02:56:07;;;;;;;9.45;5.72;;;614.40;2073.60;;;;;;5093290;28;20016;-49
2021/07/17 02:58:33;;;;;;;9.55;5.43;;;614.40;2099.20;;;;;;5093825;28;20049;-49
2021/07/17 03:00:59;;;;;;;7.68;5.82;;;614.40;2073.60;;;;;;5093306;28;20031;-49
2021/07/17 03:03:25;;;;;;;11.27;5.63;;;614.40;2048.00;;;;;;5093194;28;20099;-49
2021/07/17 03:05:51;;;;;;;8.15;6.05;;;614.40;2048.00;;;;;;5093266;28;20024;-49
2021/07/17 03:08:22;;;;;;;9.77;6.40;;;614.50;2048.00;;;;;;5093130;28;20036;-49
2021/07/17 03:10:52;;;;;;;11.88;6.43;;;614.50;2048.00;;;;;;5093476;28;20032;-49
2021/07/17 03:13:19;;;;;;;10.52;6.60;;;614.50;2048.00;;;;;;5093428;28;20020;-49
2021/07/17 03:15:47;;;;;;;11.38;6.45;;;614.50;2022.40;;;;;;5093358;28;20023;-48
2021/07/17 03:18:14;;;;;;;9.80;6.40;;;614.50;2048.00;;;;;;5093334;28;20024;-49
2021/07/17 03:20:40;;;;;;;11.10;6.97;;;614.60;2022.40;;;;;;5093021;28;20427;-49
2021/07/17 03:23:06;;;;;;;8.45;6.95;;;614.60;2022.40;;;;;;5096326;28;20111;-49
2021/07/17 03:25:32;;;;;;;9.38;6.47;;;614.60;2022.40;;;;;;5097070;28;20027;-49
2021/07/17 03:27:58;;;;;;;10.90;6.95;;;614.60;2022.40;;;;;;5096367;28;20048;-57
2021/07/17 03:30:24;;;;;;;13.57;6.97;;;614.60;2022.40;;;;;;5096688;28;20073;-57
2021/07/17 03:32:50;;;;;;;15.23;7.00;;;614.50;2022.40;;;;;;5096611;28;20016;-50
2021/07/17 03:35:16;;;;;;;15.95;7.32;;;614.60;2022.40;;;;;;5096575;28;20081;-49
2021/07/17 03:37:42;;;;;;;10.63;7.28;;;614.60;2022.40;;;;;;5096692;28;20146;-49
2021/07/17 03:40:09;;;;;;;14.82;6.65;;;614.60;2022.40;;;;;;5096499;28;20153;-49
2021/07/17 03:42:34;;;;;;;15.77;6.72;;;614.60;2022.40;;;;;;5096473;28;20027;-49
2021/07/17 03:45:01;;;;;;;13.90;6.88;;;614.60;2022.40;;;;;;5096444;28;20028;-49
2021/07/17 03:47:27;;;;;;;12.27;7.03;;;614.60;1996.80;;;;;;5096408;28;20028;-54
2021/07/17 03:49:52;;;;;;;9.65;5.90;;;614.60;2022.40;;;;;;5096499;28;20032;-49
2021/07/17 03:52:18;;;;;;;10.98;6.88;;;614.60;2022.40;;;;;;5096263;28;20024;-49
2021/07/17 03:54:44;;;;;;;11.98;6.50;;;614.60;2022.40;;;;;;5096550;28;20020;-57
2021/07/17 03:57:10;;;;;;;12.82;6.72;;;614.60;2022.40;;;;;;5096257;28;20016;-49
2021/07/17 03:59:37;;;;;;;18.50;7.30;;;614.50;2022.40;;;;;;5096077;28;20046;-49
2021/07/17 04:02:04;;;;;;;13.15;7.15;;;614.50;2022.40;;;;;;5096049;28;20016;-49
2021/07/17 04:04:30;;;;;;;12.70;6.88;;;614.60;2022.40;;;;;;5095925;28;20468;-50
2021/07/17 04:06:56;;;;;;;12.65;6.90;;;614.60;2022.40;;;;;;5096335;28;20031;-49
2021/07/17 04:09:22;;;;;;;11.68;6.60;;;614.60;2022.40;;;;;;5095839;28;20357;-49
2021/07/17 04:11:50;;;;;;;14.13;6.90;;;614.60;2022.40;;;;;;5094586;28;20024;-57
2021/07/17 04:14:15;;;;;;;12.40;6.80;;;614.50;2022.40;;;;;;5096440;28;20106;-49
2021/07/17 04:16:42;;;;;;;11.18;6.95;;;614.60;2022.40;;;;;;5095754;28;20099;-49
2021/07/17 04:19:09;;;;;;;15.63;6.80;;;614.60;2022.40;;;;;;5095779;28;20128;-49
2021/07/17 04:21:35;;;;;;;16.42;7.28;;;614.60;2022.40;;;;;;5095753;28;20054;-49
2021/07/17 04:24:01;;;;;;;15.95;7.45;;;614.60;2048.00;;;;;;5095171;28;20419;-49
2021/07/17 04:26:27;;;;;;;13.10;7.97;;;614.60;2022.40;;;;;;5095449;28;20064;-49
2021/07/17 04:28:53;;;;;;;12.40;6.55;;;614.60;2022.40;;;;;;5095489;28;20063;-49
2021/07/17 04:31:19;;;;;;;12.55;7.88;;;614.60;2022.40;;;;;;5095526;28;20024;-49
2021/07/17 04:33:45;;;;;;;13.20;7.65;;;614.60;2022.40;;;;;;5095457;28;20470;-56
2021/07/17 04:36:11;;;;;;;12.95;6.72;;;614.60;2022.40;;;;;;5095784;28;20097;-49
2021/07/17 04:38:38;;;;;;;14.23;8.30;;;614.60;2022.40;;;;;;5095441;28;20113;-49
2021/07/17 04:41:04;;;;;;;12.57;7.93;;;614.60;2022.40;;;;;;5095331;28;20027;-49
2021/07/17 04:43:30;;;;;;;10.35;7.28;;;614.50;2022.40;;;;;;5095633;28;20020;-56
2021/07/17 04:45:56;;;;;;;15.85;7.32;;;614.60;2022.40;;;;;;5095198;28;20019;-49
2021/07/17 04:48:22;;;;;;;12.63;7.15;;;614.70;2022.40;;;;;;5095366;28;20035;-49
2021/07/17 04:50:48;;;;;;;10.63;7.72;;;614.70;2022.40;;;;;;5095083;28;20063;-58
2021/07/17 04:53:14;;;;;;;14.02;7.05;;;614.70;2022.40;;;;;;5095399;28;20465;-49
2021/07/17 04:55:40;;;;;;;11.07;7.03;;;614.70;2022.40;;;;;;5095302;28;20055;-49
2021/07/17 04:58:06;;;;;;;10.82;7.63;;;614.80;2022.40;;;;;;5095004;28;20028;-50
2021/07/17 05:00:32;;;;;;;13.52;7.22;;;614.90;2022.40;;;;;;5095145;28;20016;-49
2021/07/17 05:02:57;;;;;;;12.05;7.55;;;614.90;2022.40;;;;;;5095178;28;20039;-49
2021/07/17 05:05:24;;;;;;;9.45;6.90;;;614.90;2022.40;;;;;;5095015;28;20031;-49
2021/07/17 05:07:52;;;;;;;9.77;7.00;;;614.90;2022.40;;;;;;5095309;28;20028;-49
2021/07/17 05:10:20;;;;;;;12.30;6.95;;;614.90;2022.40;;;;;;5095054;28;20023;-49
2021/07/17 05:12:46;;;;;;;10.82;7.35;;;614.90;1996.80;;;;;;5093474;28;20069;-49
2021/07/17 05:15:14;;;;;;;13.70;6.97;;;614.90;2022.40;;;;;;5094614;28;20024;-49
2021/07/17 05:17:40;;;;;;;12.07;7.72;;;614.90;2022.40;;;;;;5094603;28;20376;-49
2021/07/17 05:20:09;;;;;;;11.80;6.82;;;615.00;2022.40;;;;;;5094597;28;20028;-49
2021/07/17 05:22:35;;;;;;;10.40;6.70;;;615.00;1996.80;;;;;;5094612;28;20032;-49
2021/07/17 05:25:02;;;;;;;12.75;7.68;;;615.00;2022.40;;;;;;5094498;28;20035;-57
2021/07/17 05:27:28;;;;;;;9.70;7.03;;;614.90;2022.40;;;;;;5094394;28;20493;-49
2021/07/17 05:29:55;;;;;;;12.32;7.38;;;615.00;2022.40;;;;;;5094510;28;20056;-49
2021/07/17 05:32:21;;;;;;;12.90;6.47;;;615.00;2022.40;;;;;;5094358;28;20468;-49
2021/07/17 05:34:47;;;;;;;9.23;6.72;;;615.00;2022.40;;;;;;5094262;28;20107;-57
2021/07/17 05:37:13;;;;;;;13.38;8.20;;;615.00;2048.00;;;;;;5094570;28;20023;-49
2021/07/17 05:39:39;;;;;;;15.38;7.97;;;615.00;2022.40;;;;;;5094223;28;20043;-49
2021/07/17 05:42:06;;;;;;;17.63;7.43;;;615.00;2022.40;;;;;;5094253;28;20434;-49
2021/07/17 05:44:33;;;;;;;11.63;7.03;;;614.90;2073.60;;;;;;5093679;28;20020;-50
2021/07/17 05:46:59;;;;;;;10.73;7.20;;;614.90;2073.60;;;;;;5094967;28;20031;-54
2021/07/17 05:49:25;;;;;;;12.90;7.07;;;614.90;2073.60;;;;;;5094500;28;20028;-58
2021/07/17 05:51:51;;;;;;;15.85;7.90;;;615.00;2073.60;;;;;;5094040;28;20054;-49
2021/07/17 05:54:18;;;;;;;15.35;7.20;;;615.00;2048.00;;;;;;5094327;28;20024;-49
2021/07/17 05:56:44;;;;;;;11.82;6.28;;;615.00;2022.40;;;;;;5094262;28;20418;-57
2021/07/17 05:59:10;;;;;;;10.68;6.63;;;615.10;2022.40;;;;;;5094230;28;20024;-49
2021/07/17 06:01:36;;;;;;;12.90;6.93;;;615.10;2022.40;;;;;;5093934;28;20020;-49
2021/07/17 06:04:03;;;;;;;13.57;6.75;;;615.10;2022.40;;;;;;5093876;28;20051;-57
2021/07/17 06:06:29;;;;;;;9.18;5.97;;;615.10;2022.40;;;;;;5093807;28;20024;-53
2021/07/17 06:08:56;;;;;;;12.77;6.60;;;615.10;1996.80;;;;;;5093673;28;20165;-49
2021/07/17 06:11:22;;;;;;;10.82;5.53;;;615.20;1996.80;;;;;;5094063;28;20073;-49
2021/07/17 06:13:48;;;;;;;19.77;8.45;;;615.30;1996.80;;;;;;5094314;28;20480;-58
2021/07/17 06:16:14;;;;;;;19.90;8.00;;;615.30;1996.80;;;;;;5093665;28;20030;-49
2021/07/17 06:18:40;;;;;;;17.92;8.50;;;640.00;1996.80;;;;;;5093631;28;20019;-49
2021/07/17 06:21:06;;;;;;;33.50;14.07;;;615.30;2022.40;;;;;;5093651;28;20028;-49
2021/07/17 06:23:32;;;;;;;43.55;19.30;;;640.00;1996.80;;;;;;5093657;28;20020;-49
2021/07/17 06:26:00;;;;;;;54.55;23.08;;;640.00;2022.40;;;;;;5093883;28;20024;-49
2021/07/17 06:28:26;;;;;;;40.97;16.70;;;640.00;1996.80;;;;;;5093849;28;20028;-54
2021/07/17 06:30:52;;;;;;;34.47;15.82;;;640.10;1996.80;;;;;;5093543;28;20078;-49
2021/07/17 06:33:18;;;;;;;26.45;10.90;;;640.10;2022.40;;;;;;5093538;28;20028;-49
2021/07/17 06:35:44;;;;;;;29.65;12.55;;;640.10;1971.20;;;;;;5093375;28;20028;-49
2021/07/17 06:38:10;;;;;;;26.77;12.23;;;640.10;1971.20;;;;;;5092212;28;20032;-49
2021/07/17 06:40:36;;;;;;;23.75;11.38;;;640.20;1971.20;;;;;;5092152;28;20491;-49
2021/07/17 06:43:02;;;;;;;24.55;11.18;;;640.20;1996.80;;;;;;5093421;28;20357;-57
2021/07/17 06:45:28;;;;;;;27.58;11.80;;;640.20;1971.20;;;;;;5093411;28;20020;-49
2021/07/17 06:47:54;;;;;;;21.55;9.48;;;640.20;1971.20;;;;;;5093351;28;20027;-49
2021/07/17 06:50:21;;;;;;;22.90;9.30;;;640.20;1971.20;;;;;;5093890;28;20020;-50
2021/07/17 06:52:47;;;;;;;20.13;7.65;;;640.30;1971.20;;;;;;5093369;28;20024;-50
2021/07/17 06:55:13;;;;;;;24.02;6.68;;;640.20;1971.20;;;;;;5092019;28;20027;-57
2021/07/17 06:57:41;;;;;;;9.50;5.15;;;640.20;1971.20;;;;;;5096065;28;20028;-49
2021/07/17 07:00:09;;;;;;;9.40;4.85;;;640.30;1971.20;;;;;;5097487;28;20108;-59
2021/07/17 07:02:35;;;;;;;6.82;4.00;;;640.30;1971.20;;;;;;5097227;28;20480;-57
2021/07/17 07:05:01;;;;;;;8.40;4.28;;;640.10;1971.20;;;;;;5097210;28;20398;-49
2021/07/17 07:07:27;;;;;;;13.85;3.70;;;640.10;1996.80;;;;;;5097159;28;20029;-49
2021/07/17 07:09:53;;;;;;;8.32;3.88;;;640.20;1971.20;;;;;;5096987;28;20086;-53
2021/07/17 07:12:19;;;;;;;7.60;4.22;;;640.30;1971.20;;;;;;5097027;28;20020;-52
2021/07/17 07:14:45;;;;;;;12.02;4.45;;;640.50;1971.20;;;;;;5096975;28;20024;-57
2021/07/17 07:17:11;;;;;;;5.75;3.60;;;640.50;1945.60;;;;;;5097038;28;20470;-48
2021/07/17 07:19:37;;;;;;;6.63;4.05;;;640.60;1945.60;;;;;;5095633;28;20020;-49
2021/07/17 07:22:03;;;;;;;7.72;3.65;;;640.60;1945.60;;;;;;5097106;28;20024;-57
2021/07/17 07:24:30;;;;;;;10.32;4.45;;;640.60;1945.60;;;;;;5096809;28;20073;-50
2021/07/17 07:26:57;;;;;;;7.40;4.00;;;640.70;1945.60;;;;;;5097061;28;20044;-49
2021/07/17 07:29:24;;;;;;;8.68;4.13;;;640.70;1945.60;;;;;;5096618;28;20040;-58
2021/07/17 07:31:51;;;;;;;5.60;3.38;;;640.70;1920.00;;;;;;5096786;28;20467;-49
2021/07/17 07:34:17;;;;;;;9.57;4.30;;;640.80;1920.00;;;;;;5096711;28;20376;-48
2021/07/17 07:36:43;;;;;;;11.32;4.20;;;640.80;1920.00;;;;;;5096598;28;20047;-54
2021/07/17 07:39:09;;;;;;;11.30;4.45;;;640.80;1920.00;;;;;;5096518;28;20059;-54
2021/07/17 07:41:35;;;;;;;7.65;4.43;;;640.60;1945.60;;;;;;5096523;28;20020;-57
2021/07/17 07:44:01;;;;;;;7.50;4.43;;;640.70;1945.60;;;;;;5096452;28;20349;-48
2021/07/17 07:46:30;;;;;;;10.02;4.18;;;640.80;1945.60;;;;;;5096451;28;20052;-49
2021/07/17 07:48:56;;;;;;;9.32;4.55;;;640.80;1945.60;;;;;;5096267;28;20431;-49
2021/07/17 07:51:21;;;;;;;9.50;4.85;;;640.80;1920.00;;;;;;5097104;28;20035;-49
2021/07/17 07:53:47;;;;;;;8.00;4.53;;;640.90;1945.60;;;;;;5096614;28;20026;-58
2021/07/17 07:56:13;;;;;;;7.88;4.50;;;665.70;1945.60;;;;;;5096231;28;20069;-49
2021/07/17 07:58:39;;;;;;;12.23;4.82;;;665.70;1945.60;;;;;;5096147;28;20431;-50
2021/07/17 08:01:05;;;;;;;9.98;4.90;;;665.80;1971.20;;;;;;5096067;28;20027;-58
2021/07/17 08:03:31;;;;;;;7.93;4.80;;;665.80;1971.20;;;;;;5096100;28;20032;-57
2021/07/17 08:05:57;;;;;;;10.90;5.57;;;665.80;1945.60;;;;;;5095994;28;20024;-57
2021/07/17 08:08:23;;;;;;;7.90;4.43;;;665.60;1996.80;;;;;;5095429;28;20028;-49
2021/07/17 08:10:49;;;;;;;9.27;4.65;;;665.60;1971.20;;;;;;5095447;28;20028;-48
2021/07/17 08:13:14;;;;;;;10.20;5.30;;;665.60;1971.20;;;;;;5095349;28;20465;-48
2021/07/17 08:15:40;;;;;;;13.05;5.68;;;665.60;1996.80;;;;;;5095377;28;20558;-48
2021/07/17 08:18:07;;;;;;;8.00;4.65;;;665.70;1996.80;;;;;;5095384;28;20362;-48
2021/07/17 08:20:34;;;;;;;7.75;5.20;;;665.80;1971.20;;;;;;5095298;28;20020;-49
2021/07/17 08:23:00;;;;;;;11.77;5.10;;;666.00;1971.20;;;;;;5092604;28;20031;-48
2021/07/17 08:25:26;;;;;;;10.13;4.85;;;666.00;1996.80;;;;;;5095167;28;20377;-48
2021/07/17 08:27:52;;;;;;;9.07;5.00;;;666.10;1971.20;;;;;;5094879;28;20036;-48
2021/07/17 08:30:18;;;;;;;12.63;4.93;;;666.10;1971.20;;;;;;5095027;28;20483;-48
2021/07/17 08:32:44;;;;;;;10.90;5.45;;;666.30;1945.60;;;;;;5095065;28;20028;-49
2021/07/17 08:35:10;;;;;;;12.68;5.68;;;666.30;1945.60;;;;;;5094993;28;20023;-48
2021/07/17 08:37:36;;;;;;;10.93;4.78;;;691.30;1920.00;;;;;;5095135;28;20381;-49
2021/07/17 08:40:07;;;;;;;12.45;5.20;;;666.50;1971.20;;;;;;5094847;28;20016;-49
2021/07/17 08:42:42;;;;;;;9.25;6.13;;;666.50;1945.60;;;;;;5095102;28;20032;-48
2021/07/17 08:45:09;;;;;;;10.45;5.40;;;691.20;1945.60;;;;;;5093360;28;20020;-49
2021/07/17 08:47:40;;;;;;;12.00;5.88;;;691.30;1920.00;;;;;;5094776;28;20024;-49
2021/07/17 08:50:09;;;;;;;13.38;7.07;;;691.50;1920.00;;;;;;5094635;28;20036;-49
2021/07/17 08:52:35;;;;;;;8.02;5.68;;;691.50;1894.40;;;;;;5094639;28;20035;-49
2021/07/17 08:55:07;;;;;;;11.43;5.85;;;691.50;1868.80;;;;;;5094621;28;20020;-49
2021/07/17 08:57:35;;;;;;;10.32;5.80;;;691.50;1894.40;;;;;;5094620;28;20024;-49
2021/07/17 09:00:22;;;;;;;10.35;5.38;;;691.50;1894.40;;;;;;5094532;28;20017;-50
2021/07/17 09:02:50;;;;;;;8.30;5.38;;;691.50;1894.40;;;;;;5092913;28;20026;-50
2021/07/17 09:05:18;;;;;;;9.77;5.78;;;691.60;1894.40;;;;;;5094362;28;20073;-50
2021/07/17 09:07:45;;;;;;;14.52;5.95;;;691.50;1894.40;;;;;;5094405;28;20098;-50
2021/07/17 09:10:38;;;;;;;9.40;6.63;;;691.50;1920.00;;;;;;5094245;28;20059;-50
2021/07/17 09:13:23;;;;;;;12.25;6.10;;;691.60;1920.00;;;;;;5085939;28;20031;-50
2021/07/17 09:15:49;;;;;;;11.07;6.90;;;691.70;1894.40;;;;;;5092740;28;20063;-50
2021/07/17 09:18:26;;;;;;;16.00;6.43;;;691.70;1894.40;;;;;;5094178;28;20059;-50
2021/07/17 09:21:04;;;;;;;12.10;6.13;;;691.70;1894.40;;;;;;5093575;28;20472;-50
2021/07/17 09:23:33;;;;;;;11.65;6.07;;;691.80;1894.40;;;;;;5092703;28;20500;-48
2021/07/17 09:26:01;;;;;;;9.65;6.35;;;691.80;1894.40;;;;;;5093789;28;20019;-49
2021/07/17 09:28:29;;;;;;;13.63;6.43;;;691.90;1868.80;;;;;;5093899;28;20448;-49
2021/07/17 09:31:00;;;;;;;10.48;5.93;;;691.90;1868.80;;;;;;5093955;28;20411;-55
2021/07/17 09:33:27;;;;;;;10.13;6.07;;;691.90;1843.20;;;;;;5090549;28;20024;-58
2021/07/17 09:35:55;;;;;;;7.90;5.70;;;691.90;1843.20;;;;;;5093872;28;20024;-49
2021/07/17 09:38:22;;;;;;;13.35;6.43;;;691.90;1868.80;;;;;;5093751;28;20074;-49
2021/07/17 09:40:49;;;;;;;8.65;6.18;;;692.00;1868.80;;;;;;5093785;28;20099;-49
2021/07/17 09:43:43;;;;;;;11.40;6.72;;;692.00;1868.80;;;;;;5093961;28;20028;-49
2021/07/17 09:46:23;;;;;;;17.80;6.40;;;692.10;1868.80;;;;;;5092032;28;20494;-48
2021/07/17 09:48:55;;;;;;;12.10;6.30;;;692.00;1817.60;;;;;;5092170;28;20507;-48
2021/07/17 09:51:32;;;;;;;8.48;5.82;;;692.10;1817.60;;;;;;5093586;28;20021;-48
2021/07/17 09:54:08;;;;;;;10.75;6.32;;;716.80;1843.20;;;;;;5091337;28;20016;-49
2021/07/17 09:56:36;;;;;;;16.50;7.28;;;716.80;1817.60;;;;;;5092787;28;20061;-49
2021/07/17 09:59:04;;;;;;;11.18;6.07;;;716.90;1843.20;;;;;;5092513;28;20042;-49
2021/07/17 10:01:31;;;;;;;8.85;5.85;;;716.90;1792.00;;;;;;5092428;28;20346;-49
2021/07/17 10:04:25;;;;;;;14.38;6.65;;;717.00;1817.60;;;;;;5092499;28;20028;-49
2021/07/17 10:06:59;;;;;;;14.38;7.18;;;717.00;1817.60;;;;;;5088144;28;20080;-49
2021/07/17 10:09:34;;;;;;;11.73;7.00;;;717.00;1817.60;;;;;;5093233;28;20096;-50
2021/07/17 10:12:01;;;;;;;15.45;7.32;;;717.00;1817.60;;;;;;5092370;28;20024;-48
2021/07/17 10:14:33;;;;;;;10.73;6.60;;;717.00;1817.60;;;;;;5092099;28;20016;-48
2021/07/17 10:17:04;;;;;;;12.07;7.65;;;717.10;1817.60;;;;;;5091868;28;20366;-48
2021/07/17 10:19:31;;;;;;;9.80;7.18;;;717.10;1792.00;;;;;;5091326;28;20040;-48
2021/07/17 10:21:57;;;;;;;11.15;7.82;;;717.10;1817.60;;;;;;5092242;28;20020;-48
2021/07/17 10:24:23;;;;;;;8.50;7.20;;;717.20;1817.60;;;;;;5093274;28;20028;-54
2021/07/17 10:26:52;;;;;;;9.43;7.13;;;717.20;1792.00;;;;;;5093567;28;20074;-48
2021/07/17 10:29:19;;;;;;;11.95;6.57;;;717.20;1817.60;;;;;;5093477;28;20032;-56
2021/07/17 10:31:47;;;;;;;8.93;6.32;;;717.20;1792.00;;;;;;5098776;28;20404;-54
2021/07/17 10:34:14;;;;;;;9.70;7.10;;;717.20;1792.00;;;;;;5100337;28;20027;-58
2021/07/17 10:37:03;;;;;;;10.32;6.63;;;717.20;1817.60;;;;;;5100207;28;20384;-49
2021/07/17 10:39:38;;;;;;;122.75;16.75;;;717.20;1817.60;;;;;;5100535;28;20066;-49
2021/07/17 10:42:20;;;;;;;12.57;9.35;;;717.20;1817.60;;;;;;5100162;28;20020;-49
2021/07/17 10:44:48;;;;;;;11.95;10.43;;;717.30;1766.40;;;;;;5100218;28;20020;-57
2021/07/17 10:47:15;;;;;;;16.95;9.98;;;717.30;1766.40;;;;;;5100248;28;20174;-57
2021/07/17 10:49:44;;;;;;;11.35;9.55;;;717.30;1766.40;;;;;;5100037;28;20082;-49
2021/07/17 10:52:10;;;;;;;15.20;9.48;;;717.30;1766.40;;;;;;5100155;28;20032;-50
2021/07/17 10:54:36;;;;;;;10.50;9.07;;;717.40;1766.40;;;;;;5100090;28;20102;-56
2021/07/17 10:57:03;;;;;;;12.27;9.00;;;717.30;1740.80;;;;;;5100348;28;20020;-58
2021/07/17 10:59:29;;;;;;;11.52;10.35;;;717.30;1766.40;;;;;;5098877;28;20419;-53
2021/07/17 11:01:58;;;;;;;11.02;9.70;;;717.30;1766.40;;;;;;5099679;28;20016;-58
2021/07/17 11:04:54;;;;;;;9.93;8.32;;;717.30;1766.40;;;;;;5100234;28;20400;-58
2021/07/17 11:07:23;;;;;;;12.38;9.55;;;717.30;1740.80;;;;;;5099966;28;20032;-50
2021/07/17 11:09:50;;;;;;;16.35;10.00;;;717.30;1766.40;;;;;;5099948;28;20032;-58
2021/07/17 11:12:36;;;;;;;9.45;8.00;;;717.40;1766.40;;;;;;5099994;28;20074;-58
2021/07/17 11:15:05;;;;;;;15.20;9.05;;;717.40;1740.80;;;;;;5098710;28;20577;-49
2021/07/17 11:17:41;;;;;;;12.65;8.43;;;717.40;1766.40;;;;;;5099926;28;20157;-48
2021/07/17 11:20:29;;;;;;;10.70;9.43;;;717.40;1740.80;;;;;;5099892;28;20021;-48
2021/07/17 11:23:16;;;;;;;13.00;9.43;;;717.40;1740.80;;;;;;5099386;28;20035;-48
2021/07/17 11:25:57;;;;;;;10.68;8.50;;;717.40;1740.80;;;;;;5099343;28;20012;-57
2021/07/17 11:28:47;;;;;;;10.18;8.63;;;717.30;1766.40;;;;;;5099110;28;20126;-58
2021/07/17 11:31:32;;;;;;;14.27;9.00;;;717.40;1792.00;;;;;;5098848;28;20031;-49
2021/07/17 11:34:14;;;;;;;16.00;9.60;;;717.50;1792.00;;;;;;5096603;28;20022;-49
2021/07/17 11:36:47;;;;;;;11.88;8.02;;;717.60;1740.80;;;;;;5097243;28;20464;-49
2021/07/17 11:39:16;;;;;;;13.45;8.32;;;717.60;1715.20;;;;;;5098109;28;20024;-49
2021/07/17 11:41:42;;;;;;;10.68;8.30;;;717.60;1740.80;;;;;;5095572;28;20020;-49
2021/07/17 11:44:08;;;;;;;10.50;8.85;;;717.60;1766.40;;;;;;5095731;28;20034;-49
2021/07/17 11:46:34;;;;;;;10.60;8.55;;;717.70;1740.80;;;;;;5096466;28;20107;-49
2021/07/17 11:49:08;;;;;;;11.02;7.97;;;742.40;1766.40;;;;;;5096033;28;20070;-49
2021/07/17 11:51:47;;;;;;;14.80;8.82;;;742.40;1715.20;;;;;;5096409;28;20118;-50
2021/07/17 11:54:24;;;;;;;11.32;8.43;;;742.40;1715.20;;;;;;5096879;28;20024;-52
2021/07/17 11:57:13;;;;;;;13.82;7.90;;;742.40;1740.80;;;;;;5095904;28;20487;-52
2021/07/17 11:59:47;;;;;;;34.38;14.93;;;742.50;1664.00;;;;;;5095719;28;20016;-49
2021/07/17 12:02:16;;;;;;;30.50;11.52;;;742.50;1689.60;;;;;;5095742;28;20032;-49
2021/07/17 12:04:51;;;;;;;156.70;49.25;;;742.60;1689.60;;;;;;5095977;28;20024;-49
2021/07/17 12:07:38;;;;;;;115.78;35.38;;;742.50;1740.80;;;;;;5096065;28;20020;-58
2021/07/17 12:10:15;;;;;;;97.60;31.27;;;742.60;1715.20;;;;;;5095855;28;20081;-49
2021/07/17 12:12:43;;;;;;;27.13;11.52;;;742.60;1715.20;;;;;;5096007;28;20016;-57